Thursday, October 23, 2014
05:17 UTC
  |  Log In   |  Register Free
Airport Search:

La Guardia Airport
(KLGA)

FAA data valid effective September 18, 2014 - November 13, 2014 (unless otherwise noted).

 
 
 
 
 
 
 
 
 
 
 
 
 
 

Current Aviation Weather for La Guardia Airport (KLGA)

The most recent METAR observation for KLGA was updated at: 0412
METAR Summary (Translated METAR)
KLGA
230351Z 36014G25KT 10SM SCT017 SCT029 OVC038 11/08 A2973 RMK AO2 PK WND 01036/0314 RAE38 SLP065 P0011 T01110083
KJFK
230351Z 01019G30KT 10SM OVC015 11/08 A2972 RMK AO2 PK WND 02030/0347 RAE49 SLP063 P0004 T01110083
(9.3 nm SE from KLGA)
KTEB
230351Z 35019G27KT 10SM -RA FEW019 SCT031 OVC048 11/08 A2972 RMK AO2 PK WND 36027/0351 SLP065 P0014 T01110078 $
(9.6 nm NW from KLGA)
TAF Summary (Translated TAF)
KLGA
230139Z 2302/2324 01016G25KT P6SM -RA SCT015 BKN025 TEMPO 2302/2304 4SM RA BR BKN015 FM230400 36020G32KT 4SM -RA BR BKN015 FM230800 36021G30KT 6SM BR VCSH BKN010 FM231400 34020G28KT 6SM BR VCSH BKN015 FM231800 34019G27KT P6SM BKN020 OVC035
KJFK
(9.3 nm SE from KLGA)
230140Z 2302/2406 35020G29KT P6SM -RA SCT015 BKN025 OVC035 TEMPO 2302/2304 5SM RA BR BKN015 FM230400 35023G35KT 4SM -RA BR BKN015 FM230800 35022G33KT 6SM BR VCSH BKN010 FM231400 33021G29KT 6SM BR VCSH BKN015 FM231800 33020G28KT P6SM BKN020 OVC035 FM232300 32017G25KT P6SM BKN040 BKN080
  Airport Weather Conditions for KLGA

 Current Weather at LGA
53° F
Overcast
North winds at 15.0 mph
LGA NOAA Radar

Pressure: 29.72 in
Humidity: 80%
Wind: from the North at 15.0 gusting to 21.9 MPH (13 gusting to 19 KT)
Dew Point: 46.9°F
Visibility: 10.00 mi


Airport Weather Forecast for KLGA

Translated METAR and TAF for KLGA
Translated METAR for KLGA (0512 UTC 23 October 2014)
found at http://aviationweather.gov/adds/metars/
 
METAR text: KLGA 230500Z 01014G21KT 10SM SCT020 OVC033 12/08 A2972 RMK AO2
Conditions at: KLGA (NYC/LA GUARDIA , NY, US) observed 0500 UTC 23 October 2014
Temperature: 12.0°C (54°F)
Dewpoint: 8.0°C (46°F) [RH = 76%]
Pressure (altimeter): 29.72 inches Hg (1006.5 mb)
Winds: from the N (10 degrees) at 16 MPH (14 knots; 7.3 m/s)
gusting to 24 MPH (21 knots; 10.9 m/s)
Visibility: 10 or more miles (16+ km)
Ceiling: 3300 feet AGL
Clouds: scattered clouds at 2000 feet AGL
overcast cloud deck at 3300 feet AGL
Weather: no significant weather observed at this time
Translated TAF for KLGA
Forecast for: KLGA (NYC/LA GUARDIA , NY, US)
TAF Text: KLGA 230218Z 2302/2324 36018G27KT 6SM -RA BR SCT015 BKN025 WS020/03050KT
Forecast period: 0200 to 0400 UTC 23 October 2014
Forecast type: FROM: standard forecast or significant change
Winds: from the N (360 degrees) at 21 MPH (18 knots; 9.4 m/s)
gusting to 31 MPH (27 knots; 14.0 m/s)
Visibility: 6 miles (10 km)
Ceiling: 2500 feet AGL
Clouds: scattered clouds at 1500 feet AGL
broken clouds at 2500 feet AGL
Wind shear: at 2000 feet ( 610 m) AGL, from the NNE (30 degrees) at 57 MPH (50 knots; 26.0 m/s)
Weather: -RA BR  (light rain, mist)
TAF Text: TEMPO 2302/2304 4SM RA BR BKN015
Forecast period: 0200 to 0400 UTC 23 October 2014
Forecast type: TEMPORARY: The following changes expected for less than half the time period
Visibility: 4 miles (6 km)
Ceiling: 1500 feet AGL
Clouds: broken clouds at 1500 feet AGL
Weather: RA BR  (rain, mist)
TAF Text: FM230400 36020G32KT 4SM -RA BR BKN015 WS020/03050KT
Forecast period: 0400 to 0800 UTC 23 October 2014
Forecast type: FROM: standard forecast or significant change
Winds: from the N (360 degrees) at 23 MPH (20 knots; 10.4 m/s)
gusting to 37 MPH (32 knots; 16.6 m/s)
Visibility: 4 miles (6 km)
Ceiling: 1500 feet AGL
Clouds: broken clouds at 1500 feet AGL
Wind shear: at 2000 feet ( 610 m) AGL, from the NNE (30 degrees) at 57 MPH (50 knots; 26.0 m/s)
Weather: -RA BR  (light rain, mist)
TAF Text: FM230800 36021G30KT 6SM BR VCSH BKN010
Forecast period: 0800 to 1400 UTC 23 October 2014
Forecast type: FROM: standard forecast or significant change
Winds: from the N (360 degrees) at 24 MPH (21 knots; 10.9 m/s)
gusting to 34 MPH (30 knots; 15.6 m/s)
Visibility: 6 miles (10 km)
Ceiling: 1000 feet AGL
Clouds: broken clouds at 1000 feet AGL
Weather: BR VCSH  (mist, showers in vicinity)
TAF Text: FM231400 34020G28KT 6SM BR VCSH BKN015
Forecast period: 1400 to 1800 UTC 23 October 2014
Forecast type: FROM: standard forecast or significant change
Winds: from the NNW (340 degrees) at 23 MPH (20 knots; 10.4 m/s)
gusting to 32 MPH (28 knots; 14.6 m/s)
Visibility: 6 miles (10 km)
Ceiling: 1500 feet AGL
Clouds: broken clouds at 1500 feet AGL
Weather: BR VCSH  (mist, showers in vicinity)
TAF Text: FM231800 34019G27KT P6SM BKN020 OVC035
Forecast period: 1800 UTC 23 October 2014 to 0000 UTC 24 October 2014
Forecast type: FROM: standard forecast or significant change
Winds: from the NNW (340 degrees) at 22 MPH (19 knots; 9.9 m/s)
gusting to 31 MPH (27 knots; 14.0 m/s)
Visibility: 6 or more miles (10+ km)
Ceiling: 2000 feet AGL
Clouds: broken clouds at 2000 feet AGL
overcast cloud deck at 3500 feet AGL
Weather: no significant weather forecast for this period

Find All Airport Services Find A Hotel Find A Rental Car Find A Golf Course Find A Restaurant $100 Hamburger



FBO's on the Field
FBO Company Facility Photos Services Transportation Aviation Fuel Prices: Prices include tax
Catering Weather Repair Courtesy Rental Type 100LL JetA JetA+ MOGAS 8087
 
Sheltair

This FBO has not yet been rated
FS:Avfuel
Last Updated: Sep-26
Login to update fuel prices
SS:
Contact SheltairMore FBO Information
 
Add another FBO Facility Photos Catering Weather Repair Courtesy Rental Type 100LL JetA JetA+ MOGAS 8087
Services Transportation Aviation Fuel Prices: Prices include tax


model-print
model-print
model-print
model-print